createdAt,value
2023-05-12T00:03:31.401Z,8.40
2023-05-12T00:07:34.817Z,8.50
2023-05-12T00:11:41.846Z,8.40
2023-05-12T00:15:45.141Z,8.40
2023-05-12T00:19:48.776Z,8.40
2023-05-12T00:23:52.242Z,8.40
2023-05-12T00:27:57.104Z,8.30
2023-05-12T00:32:00.533Z,8.30
2023-05-12T00:36:04.408Z,8.30
2023-05-12T00:40:09.482Z,8.30
2023-05-12T00:44:14.706Z,8.30
2023-05-12T00:48:18.344Z,8.30
2023-05-12T00:52:22.098Z,8.30
2023-05-12T00:56:26.503Z,8.30
2023-05-12T01:00:31.406Z,8.30
2023-05-12T01:04:35.365Z,8.30
2023-05-12T01:08:42.768Z,8.30
2023-05-12T01:12:46.685Z,8.20
2023-05-12T01:16:54.390Z,8.20
2023-05-12T01:20:58.358Z,8.20
2023-05-12T01:25:04.996Z,8.20
2023-05-12T01:29:10.609Z,8.20
2023-05-12T01:33:14.349Z,8.20
2023-05-12T01:37:18.169Z,8.20
2023-05-12T01:41:22.163Z,8.20
2023-05-12T01:45:26.875Z,8.00
2023-05-12T01:49:30.542Z,7.90
2023-05-12T01:53:34.013Z,7.80
2023-05-12T01:57:37.549Z,7.70
2023-05-12T02:01:42.792Z,7.70
2023-05-12T02:05:47.738Z,7.60
2023-05-12T02:09:51.408Z,7.60
2023-05-12T02:13:55.605Z,7.60
2023-05-12T02:18:03.830Z,7.60
2023-05-12T02:22:07.192Z,7.50
2023-05-12T02:26:11.618Z,7.60
2023-05-12T02:30:15.799Z,7.80
2023-05-12T02:34:22.616Z,7.60
2023-05-12T02:38:26.713Z,7.70
2023-05-12T02:42:35.686Z,7.60
2023-05-12T02:46:39.348Z,7.60
2023-05-12T02:50:51.174Z,7.50
2023-05-12T02:54:54.559Z,7.60
2023-05-12T02:58:58.219Z,7.60
2023-05-12T03:03:01.803Z,7.60
2023-05-12T03:07:07.240Z,7.50
2023-05-12T03:11:11.332Z,7.50
2023-05-12T03:15:15.306Z,7.60
2023-05-12T03:19:22.055Z,7.50
2023-05-12T03:23:28.004Z,7.50
2023-05-12T03:27:33.262Z,7.60
2023-05-12T03:31:37.124Z,7.60
2023-05-12T03:35:41.598Z,7.50
2023-05-12T03:39:46.435Z,7.50
2023-05-12T03:43:51.309Z,7.70
2023-05-12T03:47:54.644Z,7.60
2023-05-12T03:51:58.591Z,7.50
2023-05-12T03:56:07.620Z,7.50
2023-05-12T04:00:12.179Z,7.50
2023-05-12T04:04:22.678Z,7.60
2023-05-12T04:08:31.503Z,7.70
2023-05-12T04:12:36.535Z,7.60
2023-05-12T04:16:40.956Z,7.60
2023-05-12T04:20:44.379Z,7.60
2023-05-12T04:24:49.431Z,7.60
2023-05-12T04:28:54.698Z,7.50
2023-05-12T04:32:59.125Z,7.60
2023-05-12T04:37:02.865Z,7.50
2023-05-12T04:41:07.147Z,7.60
2023-05-12T04:45:13.375Z,7.50
2023-05-12T04:49:17.673Z,7.50
2023-05-12T04:53:21.083Z,7.50
2023-05-12T04:57:26.844Z,7.50
2023-05-12T05:01:32.927Z,7.50
2023-05-12T05:05:36.515Z,7.60
2023-05-12T05:09:39.985Z,7.60
2023-05-12T05:13:43.658Z,7.50
2023-05-12T05:17:49.831Z,7.60
2023-05-12T05:21:54.802Z,7.60
2023-05-12T05:25:58.140Z,7.60
2023-05-12T05:30:02.183Z,7.50
2023-05-12T05:34:08.194Z,7.50
2023-05-12T05:38:13.214Z,7.40
2023-05-12T05:42:16.791Z,7.60
2023-05-12T05:46:20.497Z,7.60
2023-05-12T05:50:26.540Z,7.50
2023-05-12T05:54:30.302Z,7.50
2023-05-12T05:58:35.431Z,7.40
2023-05-12T06:02:40.887Z,7.50
2023-05-12T06:06:47.320Z,7.40
2023-05-12T06:10:50.897Z,7.50
2023-05-12T06:14:55.601Z,7.40
2023-05-12T06:18:59.012Z,7.60
2023-05-12T06:23:05.701Z,7.60
2023-05-12T06:27:09.003Z,7.60
2023-05-12T06:31:12.723Z,7.60
2023-05-12T06:35:16.191Z,7.70
2023-05-12T06:39:22.182Z,7.80
2023-05-12T06:43:25.805Z,7.80
2023-05-12T06:47:31.683Z,7.80
2023-05-12T06:51:35.467Z,7.90
2023-05-12T06:55:43.338Z,7.90
2023-05-12T06:59:46.647Z,7.90
2023-05-12T07:03:50.030Z,7.90
2023-05-12T07:07:54.561Z,7.90
2023-05-12T07:12:00.896Z,7.90
2023-05-12T07:16:29.962Z,7.90
2023-05-12T07:20:33.447Z,8.00
2023-05-12T07:24:38.589Z,8.00
2023-05-12T07:28:43.572Z,7.80
2023-05-12T07:32:49.293Z,7.90
2023-05-12T07:36:52.920Z,7.80
2023-05-12T07:40:56.985Z,7.70
2023-05-12T07:45:01.745Z,7.70
2023-05-12T07:49:05.369Z,8.00
2023-05-12T07:53:08.748Z,8.30
2023-05-12T07:57:12.281Z,8.50
2023-05-12T08:01:17.632Z,8.70
2023-05-12T08:05:21.656Z,8.80
2023-05-12T08:09:25.158Z,8.90
2023-05-12T08:13:28.452Z,8.60
2023-05-12T08:17:33.330Z,8.70
2023-05-12T08:21:36.586Z,8.90
2023-05-12T08:25:48.470Z,8.60
2023-05-12T08:29:51.780Z,8.40
2023-05-12T08:34:09.066Z,8.30
2023-05-12T08:38:13.772Z,8.10
2023-05-12T08:42:29.601Z,8.00
2023-05-12T08:46:33.455Z,8.10
2023-05-12T08:50:45.888Z,8.10
2023-05-12T08:54:55.959Z,8.20
2023-05-12T08:59:01.081Z,8.10
2023-05-12T09:03:07.394Z,7.90
2023-05-12T09:07:12.804Z,7.90
2023-05-12T09:11:17.614Z,8.00
2023-05-12T09:15:28.713Z,8.10
2023-05-12T09:19:32.763Z,8.20
2023-05-12T09:23:39.753Z,8.30
2023-05-12T09:27:43.035Z,8.40
2023-05-12T09:31:53.637Z,8.40
2023-05-12T09:35:56.886Z,8.20
2023-05-12T09:40:06.424Z,8.20
2023-05-12T09:44:11.034Z,8.20
2023-05-12T09:48:15.538Z,8.10
2023-05-12T09:52:22.733Z,8.20
2023-05-12T09:56:31.579Z,8.30
2023-05-12T10:00:52.392Z,8.60
2023-05-12T10:05:04.657Z,8.70
2023-05-12T10:09:20.282Z,8.60
2023-05-12T10:13:26.410Z,8.30
2023-05-12T10:17:33.224Z,8.20
2023-05-12T10:21:39.725Z,8.10
2023-05-12T10:25:46.107Z,8.30
2023-05-12T10:29:53.558Z,8.50
2023-05-12T10:33:58.892Z,8.70
2023-05-12T10:38:10.064Z,8.50
2023-05-12T10:42:13.318Z,8.20
2023-05-12T10:46:24.412Z,8.20
2023-05-12T10:50:29.234Z,8.00
2023-05-12T10:54:40.923Z,8.00
2023-05-12T10:59:09.326Z,7.80
2023-05-12T11:03:17.352Z,7.70
2023-05-12T11:07:24.684Z,7.70
2023-05-12T11:11:30.105Z,7.60
2023-05-12T11:15:33.640Z,7.60
2023-05-12T11:19:40.649Z,7.90
2023-05-12T11:23:43.877Z,8.10
2023-05-12T11:27:51.774Z,8.10
2023-05-12T11:31:55.724Z,7.90
2023-05-12T11:36:06.071Z,7.90
2023-05-12T11:40:19.446Z,7.90
2023-05-12T11:44:24.191Z,8.00
2023-05-12T11:48:35.120Z,8.30
2023-05-12T11:52:40.597Z,8.20
2023-05-12T11:56:49.776Z,8.40
2023-05-12T12:00:53.248Z,8.50
2023-05-12T12:04:58.700Z,8.50
2023-05-12T12:09:03.543Z,8.70
2023-05-12T12:13:07.256Z,8.60
2023-05-12T12:17:10.538Z,8.70
2023-05-12T12:21:13.949Z,8.60
2023-05-12T12:25:19.886Z,8.30
2023-05-12T12:29:26.304Z,8.30
2023-05-12T12:33:30.587Z,8.00
2023-05-12T12:37:35.607Z,7.90
2023-05-12T12:41:41.816Z,7.80
2023-05-12T12:45:45.495Z,7.80
2023-05-12T12:49:48.853Z,7.70
2023-05-12T12:53:52.365Z,7.40
2023-05-12T12:57:57.140Z,7.50
2023-05-12T13:02:03.436Z,7.80
2023-05-12T13:06:14.150Z,8.10
2023-05-12T13:10:17.866Z,8.30
2023-05-12T13:14:23.091Z,8.40
2023-05-12T13:18:26.480Z,8.30
2023-05-12T13:22:29.874Z,8.40
2023-05-12T13:26:33.337Z,8.30
2023-05-12T13:30:40.194Z,8.30
2023-05-12T13:34:43.628Z,8.10
2023-05-12T13:38:48.069Z,7.90
2023-05-12T13:42:51.310Z,8.00
2023-05-12T13:46:57.281Z,7.80
2023-05-12T13:51:00.589Z,7.70
2023-05-12T13:55:05.304Z,7.70
2023-05-12T13:59:09.838Z,7.50
2023-05-12T14:03:14.840Z,7.40
2023-05-12T14:07:21.991Z,7.60
2023-05-12T14:11:25.339Z,7.60
2023-05-12T14:15:44.284Z,7.80
2023-05-12T14:19:52.342Z,7.80
2023-05-12T14:24:20.544Z,8.00
2023-05-12T14:28:24.261Z,7.90
2023-05-12T14:32:28.591Z,7.90
2023-05-12T14:36:33.379Z,7.80
2023-05-12T14:40:38.507Z,7.70
2023-05-12T14:44:43.617Z,7.60
2023-05-12T14:48:49.165Z,7.50
2023-05-12T14:52:53.883Z,7.50
2023-05-12T14:57:00.701Z,7.40
2023-05-12T15:01:04.411Z,7.50
2023-05-12T15:05:09.723Z,7.50
2023-05-12T15:09:14.440Z,7.60
2023-05-12T15:13:21.441Z,7.70
2023-05-12T15:17:25.083Z,7.70
2023-05-12T15:21:29.526Z,7.80
2023-05-12T15:25:34.343Z,7.80
2023-05-12T15:29:39.893Z,7.90
2023-05-12T15:33:43.221Z,7.90
2023-05-12T15:37:46.782Z,7.90
2023-05-12T15:41:51.606Z,7.70
2023-05-12T15:45:55.139Z,7.70
2023-05-12T15:49:58.344Z,7.80
2023-05-12T15:54:01.978Z,7.90
2023-05-12T15:58:08.400Z,7.90
2023-05-12T16:02:12.159Z,8.00
2023-05-12T16:06:15.711Z,8.00
2023-05-12T16:10:19.694Z,8.10
2023-05-12T16:14:25.562Z,8.00
2023-05-12T16:18:31.993Z,8.00
2023-05-12T16:22:35.450Z,8.10
2023-05-12T16:26:40.986Z,8.00
2023-05-12T16:30:46.165Z,7.90
2023-05-12T16:34:49.836Z,8.00
2023-05-12T16:38:53.573Z,8.10
2023-05-12T16:42:57.311Z,8.00
2023-05-12T16:47:02.124Z,7.80
2023-05-12T16:51:08.901Z,7.80
2023-05-12T16:55:12.465Z,7.80
2023-05-12T16:59:17.221Z,7.70
2023-05-12T17:03:23.449Z,7.70
2023-05-12T17:07:27.164Z,7.60
2023-05-12T17:11:31.753Z,7.60
2023-05-12T17:15:35.135Z,7.50
2023-05-12T17:19:42.042Z,7.40
2023-05-12T17:23:45.875Z,7.50
2023-05-12T17:27:52.351Z,7.40
2023-05-12T17:31:55.741Z,7.30
2023-05-12T17:36:12.234Z,7.30
2023-05-12T17:40:18.009Z,7.30
2023-05-12T17:44:23.634Z,7.30
2023-05-12T17:48:27.000Z,7.10
2023-05-12T17:52:32.945Z,7.10
2023-05-12T17:56:36.714Z,7.10
2023-05-12T18:00:40.173Z,6.90
2023-05-12T18:04:43.748Z,6.90
2023-05-12T18:08:48.725Z,6.90
2023-05-12T18:12:53.671Z,7.00
2023-05-12T18:17:07.770Z,6.90
2023-05-12T18:21:12.598Z,6.90
2023-05-12T18:25:17.497Z,6.70
2023-05-12T18:29:20.876Z,6.60
2023-05-12T18:33:24.348Z,6.60
2023-05-12T18:37:28.857Z,6.70
2023-05-12T18:41:34.778Z,6.70
2023-05-12T18:45:38.315Z,6.60
2023-05-12T18:49:41.938Z,6.60
2023-05-12T18:53:45.275Z,6.60
2023-05-12T18:57:50.211Z,6.50
2023-05-12T19:01:53.667Z,6.50
2023-05-12T19:05:57.273Z,6.60
2023-05-12T19:10:01.452Z,6.60
2023-05-12T19:14:07.086Z,6.70
2023-05-12T19:18:11.432Z,6.60
2023-05-12T19:22:14.666Z,6.60
2023-05-12T19:26:18.197Z,6.70
2023-05-12T19:30:25.393Z,6.60
2023-05-12T19:34:31.714Z,6.70
2023-05-12T19:38:35.199Z,6.60
2023-05-12T19:42:46.259Z,6.50
2023-05-12T19:46:53.386Z,6.50
2023-05-12T19:50:56.803Z,6.40
2023-05-12T19:55:00.626Z,6.40
2023-05-12T19:59:04.780Z,6.60
2023-05-12T20:03:11.904Z,6.60
2023-05-12T20:07:15.384Z,6.50
2023-05-12T20:11:18.844Z,6.60
2023-05-12T20:15:22.834Z,6.50
2023-05-12T20:19:39.204Z,6.60
2023-05-12T20:23:45.720Z,6.60
2023-05-12T20:27:49.430Z,6.60
2023-05-12T20:31:53.523Z,6.50
2023-05-12T20:36:00.452Z,6.50
2023-05-12T20:40:05.454Z,6.60
2023-05-12T20:44:09.097Z,6.60
2023-05-12T20:48:12.459Z,6.60
2023-05-12T20:52:17.219Z,6.60
2023-05-12T20:56:22.765Z,6.50
2023-05-12T21:00:26.212Z,6.50
2023-05-12T21:04:29.575Z,6.60
2023-05-12T21:08:34.426Z,6.50
2023-05-12T21:12:37.728Z,6.40
2023-05-12T21:16:41.117Z,6.50
2023-05-12T21:20:44.454Z,6.50
2023-05-12T21:24:51.063Z,6.50
2023-05-12T21:28:54.966Z,6.60
2023-05-12T21:32:59.422Z,6.50
2023-05-12T21:37:02.760Z,6.40
2023-05-12T21:41:07.674Z,6.40
2023-05-12T21:45:11.394Z,6.30
2023-05-12T21:49:14.852Z,6.40
2023-05-12T21:53:18.163Z,6.40
2023-05-12T21:57:23.088Z,6.50
2023-05-12T22:01:26.510Z,6.50
2023-05-12T22:05:29.945Z,6.40
2023-05-12T22:09:34.468Z,6.50
2023-05-12T22:13:39.212Z,6.50
2023-05-12T22:17:46.102Z,6.40
2023-05-12T22:21:49.982Z,6.40
2023-05-12T22:25:54.623Z,6.40
2023-05-12T22:29:59.323Z,6.40
2023-05-12T22:34:02.616Z,6.50
2023-05-12T22:38:05.959Z,6.40
2023-05-12T22:42:34.292Z,6.40
2023-05-12T22:46:38.969Z,6.50
2023-05-12T22:50:42.306Z,6.40
2023-05-12T22:54:45.581Z,6.40
2023-05-12T22:58:48.894Z,6.50
2023-05-12T23:02:55.003Z,6.50
2023-05-12T23:06:58.340Z,6.50
2023-05-12T23:11:01.922Z,6.50
2023-05-12T23:15:05.446Z,6.40
2023-05-12T23:19:10.160Z,6.30
2023-05-12T23:23:13.409Z,6.40
2023-05-12T23:27:17.803Z,6.50
2023-05-12T23:31:21.122Z,6.40
2023-05-12T23:35:27.365Z,6.40
2023-05-12T23:39:30.759Z,6.40
2023-05-12T23:43:34.134Z,6.40
2023-05-12T23:47:37.792Z,6.40
2023-05-12T23:51:42.665Z,6.50
2023-05-12T23:55:45.945Z,6.40
2023-05-12T23:59:50.299Z,6.40
